Close

Questo sito utlizza cookie. Può leggere come li usiamo nella nostra Privacy Policy.

Ronchi Tower
Ronchi Tower

From Facebook

METAR & TAF

2021/10/18 10:20 LIPQ 181020Z AUTO 33003KT 290V010 9999 BKN200/// 16/07 Q1024
2021/10/18 06:22 TAF LIPQ 180500Z 1806/1906 VRB05KT CAVOK
2021/10/18 10:20 LIPZ 181020Z VRB03KT CAVOK 16/08 Q1025 NOSIG
2021/10/18 06:22 TAF LIPZ 180500Z 1806/1912 VRB06KT CAVOK BECMG 1820/1822 4000 BR
2021/10/18 08:50 LIPH 180850Z VRB01KT CAVOK 15/07 Q1024
2021/10/18 06:24 TAF TAF LIPH 180500Z 1806/1906 VRB05KT CAVOK
2021/10/18 10:20 LIRF 181020Z VRB04KT CAVOK 21/09 Q1023 NOSIG
2021/10/18 06:25 TAF LIRF 180500Z 1806/1912 05006KT 9999 FEW040 BECMG 1808/1810 28012KT BECMG 1818/1820 03006KT BECMG 1910/1912 27010KT
2021/10/18 10:20 LIML 181020Z VRB02KT CAVOK 16/09 Q1025 NOSIG
2021/10/18 06:22 TAF LIML 180500Z 1806/1906 VRB04KT CAVOK TEMPO 1806/1808 3000 BR
2021/10/18 10:20 EDDM 181020Z 09004KT 050V130 1300 R26R/1700D R26L/1900N BR SCT001 OVC002 07/07 Q1026 BECMG 1500
2021/10/18 06:27 TAF EDDM 180500Z 1806/1912 VRB03KT 0400 FG VV001 BECMG 1808/1810 1500 BR BKN003 BECMG 1810/1812 9999 FEW025 TEMPO 1810/1812 BKN009 BECMG 1820/1823 0500 FG VV001 BECMG 1907/1909 24005KT 9999 FEW005
2021/10/18 10:20 EGSS 181020Z AUTO 18011KT 7000 FEW006 14/13 Q1017
2021/10/18 10:17 TAF AMD EGSS 181009Z 1810/1912 17009KT 5000 BR FEW004 BECMG 1810/1812 9999 NSW TEMPO 1812/1815 6000 -RADZ BKN010 PROB30 TEMPO 1812/1815 4000 RADZ BECMG 1815/1818 8000 -RADZ SCT004 OVC007 TEMPO 1815/1818 3000 RADZ BR OVC004 BECMG 1818/1821 3000 -DZ BR OVC003 TEMPO 1819/1910 1200 DZ BKN001 PROB40 TEMPO 1819/1908 0300 FG BECMG 1908/1912 22017G27KT 9999 NSW SCT016
2021/10/18 10:20 EDDF 181020Z 20003KT 170V250 9999 FEW007 BKN011 10/08 Q1026 NOSIG
2021/10/18 07:16 TAF AMD EDDF 180702Z 1807/1912 VRB03KT 6000 SCT006 BKN012 PROB30 TEMPO 1807/1809 BKN006 BECMG 1809/1811 BKN015 BECMG 1811/1813 FEW020 PROB30 TEMPO 1903/1908 3000 BR TEMPO 1908/1912 RA BKN010

FlightRadar24

Radar Meteo

Traffic data

Agosto 2018

Passeggeri: 63892-12,9% (rank: 23)
Nazionali 34490 -19,8%
Internazionali 29193 -3,0%

Movimenti: 1307+11,7% (rank: 24)
Tot commerciale 556 -7,2%
Aviazione generale 751 +31,5%

Cargo (tons): 20,6+62,5% (rank: 21)

Gennaio - Agosto 2018

Passeggeri: 507438-3,5% (rank: 23)
Nazionali 322655 -4,9%
Internazionali 182927 -0,7%

Movimenti: 10366-4,25 (rank: 22)
Tot commerciale 5328 -11,0%
Aviazione generale 5038 +4,2%

Cargo (tons): 299,2+61,9% (rank: 20)

Photo

Gulfstream Aerospace G550
Gulfstream Aerospace G550
Distinct views: 27
Raytheon Hawker 800XP
Raytheon Hawker 800XP
Distinct views: 108
Reims F152 II
Reims F152 II
Distinct views: 227
Douglas DC-6B
Douglas DC-6B
Total views: 15753